Observation data for Clarendon on 05/25/2019      Previous  Date  Next       Current Mesonet Observations  Soil Data  Daily Summary Page  Observations in Plain Language
KCES 250500Z 15003KT 16/15 A2998 RMK A01 T01640147  RH  093%=      5-min Rain = 0
KCES 250505Z 16003KT 17/15 A2998 RMK A01 T01660147  RH  093%=      5-min Rain = 0
KCES 250510Z 18001KT 17/15 A2998 RMK A01 T01690148  RH  092%=      5-min Rain = 0
KCES 250515Z 24001KT 17/15 A2998 RMK A01 T01680146  RH  091%=      5-min Rain = 0
KCES 250520Z 18004KT 17/15 A2998 RMK A01 T01680145  RH  091%=      5-min Rain = 0
KCES 250525Z 17006KT 17/15 A2997 RMK A01 T01700146  RH  090%=      5-min Rain = 0
KCES 250530Z 17005KT 17/15 A2997 RMK A01 T01720146  RH  089%=      5-min Rain = 0
KCES 250535Z 19005KT 17/15 A2997 RMK A01 T01720145  RH  088%=      5-min Rain = 0
KCES 250540Z 19005KT 17/15 A2998 RMK A01 T01730145  RH  088%=      5-min Rain = 0
KCES 250545Z 19005KT 17/15 A2998 RMK A01 T01720145  RH  088%=      5-min Rain = 0
KCES 250550Z 19005KT 17/15 A2998 RMK A01 T01700145  RH  089%=      5-min Rain = 0
KCES 250555Z 18008G13KT 17/15 A2998 RMK A01 T01700145  RH  089%=      5-min Rain = 0
KCES 250600Z 18008KT 17/14 A2997 RMK A01 T01700144  RH  088%=      5-min Rain = 0
KCES 250605Z 18008KT 17/14 A2997 RMK A01 T01700143  RH  088%=      5-min Rain = 0
KCES 250610Z 18008KT 17/14 A2997 RMK A01 T01680142  RH  088%=      5-min Rain = 0
KCES 250615Z 18009KT 17/14 A2997 RMK A01 T01680143  RH  088%=      5-min Rain = 0
KCES 250620Z 18009KT 17/14 A2997 RMK A01 T01680143  RH  089%=      5-min Rain = 0
KCES 250625Z 17009KT 17/14 A2997 RMK A01 T01680143  RH  089%=      5-min Rain = 0
KCES 250630Z 17010KT 17/14 A2997 RMK A01 T01670142  RH  089%=      5-min Rain = 0
KCES 250635Z 18010KT 17/14 A2996 RMK A01 T01670143  RH  089%=      5-min Rain = 0
KCES 250640Z 18010KT 17/14 A2996 RMK A01 T01670143  RH  090%=      5-min Rain = 0
KCES 250645Z 17010KT 17/14 A2996 RMK A01 T01680144  RH  090%=      5-min Rain = 0
KCES 250650Z 18010KT 17/15 A2996 RMK A01 T01680145  RH  090%=      5-min Rain = 0
KCES 250655Z 18011KT 17/15 A2996 RMK A01 T01700146  RH  090%=      5-min Rain = 0
KCES 250700Z 17011KT 17/15 A2996 RMK A01 T01710147  RH  089%=      5-min Rain = 0
KCES 250705Z 17010KT 17/15 A2996 RMK A01 T01710147  RH  090%=      5-min Rain = 0
KCES 250710Z 17011KT 17/15 A2996 RMK A01 T01720148  RH  090%=      5-min Rain = 0
KCES 250715Z 18011KT 17/15 A2996 RMK A01 T01720148  RH  090%=      5-min Rain = 0
KCES 250720Z 18011KT 17/15 A2996 RMK A01 T01720148  RH  090%=      5-min Rain = 0
KCES 250725Z 17011KT 17/15 A2996 RMK A01 T01740150  RH  090%=      5-min Rain = 0
KCES 250730Z 17012KT 18/15 A2995 RMK A01 T01750151  RH  090%=      5-min Rain = 0
KCES 250735Z 17013G18KT 18/15 A2996 RMK A01 T01770152  RH  089%=      5-min Rain = 0
KCES 250740Z 17013KT 18/15 A2996 RMK A01 T01770152  RH  089%=      5-min Rain = 0
KCES 250745Z 17013KT 18/15 A2996 RMK A01 T01770153  RH  089%=      5-min Rain = 0
KCES 250750Z 17014KT 18/15 A2995 RMK A01 T01780153  RH  089%=      5-min Rain = 0
KCES 250755Z 17015KT 18/15 A2995 RMK A01 T01780153  RH  089%=      5-min Rain = 0
KCES 250800Z 17014G19KT 18/15 A2995 RMK A01 T01780153  RH  090%=      5-min Rain = 0
KCES 250805Z 17013G18KT 18/15 A2995 RMK A01 T01770154  RH  090%=      5-min Rain = 0
KCES 250810Z 17014KT 18/15 A2995 RMK A01 T01770154  RH  090%=      5-min Rain = 0
KCES 250815Z 17015KT 18/15 A2995 RMK A01 T01760153  RH  091%=      5-min Rain = 0
KCES 250820Z 16015KT 18/15 A2995 RMK A01 T01760154  RH  091%=      5-min Rain = 0
KCES 250825Z 16014G19KT 18/15 A2995 RMK A01 T01750153  RH  091%=      5-min Rain = 0
KCES 250830Z 16013G18KT 18/15 A2995 RMK A01 T01750154  RH  092%=      5-min Rain = 0
KCES 250835Z 17013G20KT 18/15 A2995 RMK A01 T01750154  RH  092%=      5-min Rain = 0
KCES 250840Z 16013G18KT 17/16 A2995 RMK A01 T01740155  RH  092%=      5-min Rain = 0
KCES 250845Z 16013G20KT 17/16 A2996 RMK A01 T01740155  RH  092%=      5-min Rain = 0
KCES 250850Z 16013G18KT 17/16 A2996 RMK A01 T01740155  RH  093%=      5-min Rain = 0
KCES 250855Z 17013KT 17/16 A2996 RMK A01 T01740156  RH  093%=      5-min Rain = 0
KCES 250900Z 16012G18KT 17/16 A2996 RMK A01 T01740156  RH  093%=      5-min Rain = 0
KCES 250905Z 16015KT 17/16 A2996 RMK A01 T01740156  RH  094%=      5-min Rain = 0
KCES 250910Z 16015G21KT 17/16 A2996 RMK A01 T01740157  RH  094%=      5-min Rain = 0
KCES 250915Z 16015G20KT 17/16 A2996 RMK A01 T01740157  RH  094%=      5-min Rain = 0
KCES 250920Z 16015G20KT 17/16 A2996 RMK A01 T01740157  RH  094%=      5-min Rain = 0
KCES 250925Z 16015G22KT 17/16 A2995 RMK A01 T01740158  RH  095%=      5-min Rain = 0
KCES 250930Z 16015G20KT 17/16 A2995 RMK A01 T01730158  RH  095%=      5-min Rain = 0
KCES 250935Z 16016KT 17/16 A2995 RMK A01 T01730158  RH  095%=      5-min Rain = 0
KCES 250940Z 17015G20KT 17/16 A2996 RMK A01 T01730158  RH  095%=      5-min Rain = 0
KCES 250945Z 17015KT 17/16 A2996 RMK A01 T01730158  RH  095%=      5-min Rain = 0
KCES 250950Z 17013KT 17/16 A2996 RMK A01 T01730158  RH  095%=      5-min Rain = 0
KCES 250955Z 17014KT 17/16 A2996 RMK A01 T01720158  RH  096%=      5-min Rain = 0
KCES 251000Z 17012G18KT 17/16 A2996 RMK A01 T01720158  RH  096%=      5-min Rain = 0
KCES 251005Z 17013KT 17/16 A2996 RMK A01 T01720158  RH  096%=      5-min Rain = 0
KCES 251010Z 17011KT 17/16 A2996 RMK A01 T01710158  RH  096%=      5-min Rain = 0
KCES 251015Z 17012KT 17/16 A2996 RMK A01 T01710158  RH  096%=      5-min Rain = 0
KCES 251020Z 17012KT 17/16 A2996 RMK A01 T01710158  RH  096%=      5-min Rain = 0
KCES 251025Z 17011KT 17/16 A2997 RMK A01 T01710158  RH  096%=      5-min Rain = 0
KCES 251030Z 17011KT 17/16 A2997 RMK A01 T01710159  RH  097%=      5-min Rain = 0
KCES 251035Z 18010KT 17/16 A2997 RMK A01 T01710159  RH  097%=      5-min Rain = 0
KCES 251040Z 17009KT 17/16 A2997 RMK A01 T01720159  RH  097%=      5-min Rain = 0
KCES 251045Z 17009G14KT 17/16 A2997 RMK A01 T01720159  RH  097%=      5-min Rain = 0
KCES 251050Z 17010KT 17/16 A2997 RMK A01 T01720159  RH  097%=      5-min Rain = 0
KCES 251055Z 17010KT 17/16 A2997 RMK A01 T01720159  RH  097%=      5-min Rain = 0
KCES 251100Z 17009KT 17/16 A2997 RMK A01 T01720160  RH  097%=      5-min Rain = 0
KCES 251105Z 17010KT 17/16 A2997 RMK A01 T01720160  RH  097%=      5-min Rain = 0
KCES 251110Z 17010KT 17/16 A2997 RMK A01 T01730161  RH  097%=      5-min Rain = 0
KCES 251115Z 17009KT 17/16 A2998 RMK A01 T01730161  RH  097%=      5-min Rain = 0
KCES 251120Z 18010KT 17/16 A2998 RMK A01 T01730161  RH  097%=      5-min Rain = 0
KCES 251125Z 17009KT 17/16 A2998 RMK A01 T01740161  RH  097%=      5-min Rain = 0
KCES 251130Z 17010KT 17/16 A2998 RMK A01 T01740162  RH  097%=      5-min Rain = 0
KCES 251135Z 17009KT 17/16 A2998 RMK A01 T01740162  RH  097%=      5-min Rain = 0
KCES 251140Z 17010KT 17/16 A2998 RMK A01 T01740162  RH  097%=      5-min Rain = 0
KCES 251145Z 17011KT 18/16 A2998 RMK A01 T01750163  RH  097%=      5-min Rain = 0
KCES 251150Z 17011KT 18/16 A2998 RMK A01 T01760164  RH  097%=      5-min Rain = 0
KCES 251155Z 17011KT 18/16 A2998 RMK A01 T01760164  RH  097%=      5-min Rain = 0
KCES 251200Z 17011KT 18/17 A2998 RMK A01 T01770165  RH  097%=      5-min Rain = 0
KCES 251205Z 17010KT 18/17 A2999 RMK A01 T01770165  RH  097%=      5-min Rain = 0
KCES 251210Z 17009KT 18/17 A2999 RMK A01 T01780166  RH  097%=      5-min Rain = 0
KCES 251215Z 17011G17KT 18/17 A2999 RMK A01 T01790167  RH  097%=      5-min Rain = 0
KCES 251220Z 17009KT 18/17 A2999 RMK A01 T01790167  RH  097%=      5-min Rain = 0
KCES 251225Z 17011G16KT 18/17 A2999 RMK A01 T01800168  RH  097%=      5-min Rain = 0
KCES 251230Z 17010KT 18/17 A2999 RMK A01 T01800168  RH  097%=      5-min Rain = 0
KCES 251235Z 17011KT 18/17 A2999 RMK A01 T01810169  RH  097%=      5-min Rain = 0
KCES 251240Z 18010KT 18/17 A30 RMK A01 T01810169  RH  097%=      5-min Rain = 0
KCES 251245Z 18012KT 18/17 A30 RMK A01 T01820170  RH  097%=      5-min Rain = 0
KCES 251250Z 18013KT 18/17 A30 RMK A01 T01820170  RH  097%=      5-min Rain = 0
KCES 251255Z 18011G16KT 18/17 A2999 RMK A01 T01830171  RH  097%=      5-min Rain = 0
KCES 251300Z 18012G17KT 18/17 A30 RMK A01 T01840172  RH  097%=      5-min Rain = 0
KCES 251305Z 18012G17KT 18/17 A30 RMK A01 T01840172  RH  097%=      5-min Rain = 0
KCES 251310Z 18011KT 19/17 A30 RMK A01 T01850173  RH  097%=      5-min Rain = 0
KCES 251315Z 18012G18KT 19/17 A30 RMK A01 T01860174  RH  097%=      5-min Rain = 0
KCES 251320Z 18011KT 19/17 A30 RMK A01 T01860174  RH  097%=      5-min Rain = 0
KCES 251325Z 18013G19KT 19/18 A30 RMK A01 T01870175  RH  097%=      5-min Rain = 0
KCES 251330Z 18013G19KT 19/18 A2999 RMK A01 T01890176  RH  098%=      5-min Rain = 0
KCES 251335Z 18014G20KT 19/18 A2999 RMK A01 T01900178  RH  098%=      5-min Rain = 0
KCES 251340Z 17015G20KT 19/18 A2999 RMK A01 T01900178  RH  098%=      5-min Rain = 0
KCES 251345Z 17014KT 19/18 A30 RMK A01 T01910178  RH  098%=      5-min Rain = 0
KCES 251350Z 17016G21KT 19/18 A30 RMK A01 T01910179  RH  098%=      5-min Rain = 0
KCES 251355Z 17016KT 19/18 A30 RMK A01 T01930180  RH  098%=      5-min Rain = 0
KCES 251400Z 18015G21KT 19/18 A30 RMK A01 T01930181  RH  097%=      5-min Rain = 0
KCES 251405Z 18016G21KT 19/18 A30 RMK A01 T01940181  RH  097%=      5-min Rain = 0
KCES 251410Z 18017KT 19/18 A30 RMK A01 T01940181  RH  097%=      5-min Rain = 0
KCES 251415Z 18015KT 19/18 A3001 RMK A01 T01940181  RH  097%=      5-min Rain = 0
KCES 251420Z 19016G21KT 20/18 A3001 RMK A01 T01950181  RH  096%=      5-min Rain = 0
KCES 251425Z 19016KT 20/18 A3001 RMK A01 T01960181  RH  096%=      5-min Rain = 0
KCES 251430Z 19014KT 20/18 A3001 RMK A01 T01970180  RH  095%=      5-min Rain = 0
KCES 251435Z 18015KT 20/18 A3001 RMK A01 T01980180  RH  094%=      5-min Rain = 0
KCES 251440Z 18014G19KT 20/18 A3001 RMK A01 T01990180  RH  094%=      5-min Rain = 0
KCES 251445Z 18015KT 20/18 A3002 RMK A01 T02010181  RH  093%=      5-min Rain = 0
KCES 251450Z 18013KT 20/18 A3002 RMK A01 T02020181  RH  093%=      5-min Rain = 0
KCES 251455Z 18014KT 20/18 A3002 RMK A01 T02030181  RH  092%=      5-min Rain = 0
KCES 251500Z 18013KT 20/18 A3002 RMK A01 T02030181  RH  092%=      5-min Rain = 0
KCES 251505Z 18012KT 20/18 A3002 RMK A01 T02020180  RH  092%=      5-min Rain = 0
KCES 251510Z 18012KT 20/18 A3002 RMK A01 T02020180  RH  092%=      5-min Rain = 0
KCES 251515Z 17013KT 20/18 A3002 RMK A01 T02030181  RH  092%=      5-min Rain = 0
KCES 251520Z 17013KT 21/18 A3002 RMK A01 T02070184  RH  091%=      5-min Rain = 0
KCES 251525Z 17013KT 21/18 A3003 RMK A01 T02090183  RH  090%=      5-min Rain = 0
KCES 251530Z 18013KT 21/18 A3003 RMK A01 T02090183  RH  090%=      5-min Rain = 0
KCES 251535Z 18013KT 21/18 A3003 RMK A01 T02080182  RH  090%=      5-min Rain = 0
KCES 251540Z 18013KT 21/18 A3002 RMK A01 T02090184  RH  090%=      5-min Rain = 0
KCES 251545Z 18012KT 21/19 A3002 RMK A01 T02130187  RH  090%=      5-min Rain = 0
KCES 251550Z 18014KT 21/19 A3002 RMK A01 T02140185  RH  088%=      5-min Rain = 0
KCES 251555Z 18012KT 21/18 A3002 RMK A01 T02110184  RH  089%=      5-min Rain = 0
KCES 251600Z 18013KT 21/19 A3002 RMK A01 T02130185  RH  089%=      5-min Rain = 0
KCES 251605Z 18012KT 21/19 A3002 RMK A01 T02140186  RH  089%=      5-min Rain = 0
KCES 251610Z 18012KT 22/19 A3002 RMK A01 T02160186  RH  088%=      5-min Rain = 0
KCES 251615Z 17013KT 22/19 A3002 RMK A01 T02150185  RH  088%=      5-min Rain = 0
KCES 251620Z 17011KT 21/19 A3002 RMK A01 T02140186  RH  089%=      5-min Rain = 0
KCES 251625Z 19011KT 21/19 A3002 RMK A01 T02140186  RH  088%=      5-min Rain = 0
KCES 251630Z 18009KT 22/19 A3002 RMK A01 T02150187  RH  089%=      5-min Rain = 0
KCES 251635Z 18010KT 22/19 A3002 RMK A01 T02160187  RH  088%=      5-min Rain = 0
KCES 251640Z 17012KT 22/19 A3002 RMK A01 T02150186  RH  088%=      5-min Rain = 0
KCES 251645Z 17011KT 22/19 A3002 RMK A01 T02150186  RH  088%=      5-min Rain = 0
KCES 251650Z 18009KT 22/19 A3002 RMK A01 T02160188  RH  088%=      5-min Rain = 0
KCES 251655Z 18008KT 22/19 A3002 RMK A01 T02190189  RH  088%=      5-min Rain = 0
KCES 251700Z 17007KT 22/19 A3002 RMK A01 T02190189  RH  087%=      5-min Rain = 0
KCES 251705Z 18009KT 22/19 A3002 RMK A01 T02210190  RH  087%=      5-min Rain = 0
KCES 251710Z 18010KT 22/19 A3002 RMK A01 T02230190  RH  086%=      5-min Rain = 0
KCES 251715Z 18008KT 22/19 A3002 RMK A01 T02240191  RH  086%=      5-min Rain = 0
KCES 251720Z 18012KT 22/19 A3002 RMK A01 T02240190  RH  085%=      5-min Rain = 0
KCES 251725Z 18014KT 23/19 A3002 RMK A01 T02250189  RH  085%=      5-min Rain = 0
KCES 251730Z 17014KT 23/19 A3002 RMK A01 T02250189  RH  085%=      5-min Rain = 0
KCES 251735Z 17013KT 23/19 A3002 RMK A01 T02260191  RH  085%=      5-min Rain = 0
KCES 251740Z 16013KT 23/19 A3002 RMK A01 T02270192  RH  085%=      5-min Rain = 0
KCES 251745Z 16010KT 23/19 A3002 RMK A01 T02290194  RH  085%=      5-min Rain = 0
KCES 251750Z 16012KT 23/19 A3001 RMK A01 T02330194  RH  084%=      5-min Rain = 0
KCES 251755Z 16013KT 23/19 A3001 RMK A01 T02310192  RH  083%=      5-min Rain = 0
KCES 251800Z 16011KT 23/19 A3001 RMK A01 T02290193  RH  085%=      5-min Rain = 0
KCES 251805Z 16011KT 23/19 A3001 RMK A01 T02290193  RH  085%=      5-min Rain = 0
KCES 251810Z 17011KT 23/19 A30 RMK A01 T02280192  RH  085%=      5-min Rain = 0
KCES 251815Z 16009KT 23/20 A30 RMK A01 T02300195  RH  085%=      5-min Rain = 0
KCES 251820Z 17009KT 23/20 A30 RMK A01 T02340198  RH  085%=      5-min Rain = 0
KCES 251825Z 18013KT 24/20 A30 RMK A01 T02380197  RH  082%=      5-min Rain = 0
KCES 251830Z 17013KT 24/20 A30 RMK A01 T02390196  RH  082%=      5-min Rain = 0
KCES 251835Z 17016KT 24/20 A30 RMK A01 T02410196  RH  080%=      5-min Rain = 0
KCES 251840Z 18016KT 24/19 A30 RMK A01 T02380194  RH  081%=      5-min Rain = 0
KCES 251845Z 17015KT 24/20 A2999 RMK A01 T02390195  RH  081%=      5-min Rain = 0
KCES 251850Z 17013KT 24/20 A2999 RMK A01 T02380195  RH  081%=      5-min Rain = 0
KCES 251855Z 17013G18KT 23/20 A2999 RMK A01 T02340196  RH  084%=      5-min Rain = 0
KCES 251900Z 17013G18KT 23/20 A2998 RMK A01 T02300195  RH  085%=      5-min Rain = 0.01
KCES 251905Z 17015KT 23/19 A2998 RMK A01 T02300194  RH  085%=      5-min Rain = 0
KCES 251910Z 17018G24KT 23/19 A2998 RMK A01 T02310192  RH  084%=      5-min Rain = 0
KCES 251915Z 17017G22KT 23/19 A2997 RMK A01 T02310192  RH  083%=      5-min Rain = 0
KCES 251920Z 17016KT 23/19 A2997 RMK A01 T02310192  RH  083%=      5-min Rain = 0
KCES 251925Z 17015KT 23/19 A2997 RMK A01 T02300193  RH  084%=      5-min Rain = 0
KCES 251930Z 17014KT 23/19 A2997 RMK A01 T02290193  RH  085%=      5-min Rain = 0
KCES 251935Z 17014G21KT 23/19 A2997 RMK A01 T02290192  RH  084%=      5-min Rain = 0
KCES 251940Z 17014KT 23/19 A2998 RMK A01 T02290192  RH  084%=      5-min Rain = 0
KCES 251945Z 17012KT 23/19 A2998 RMK A01 T02290192  RH  084%=      5-min Rain = 0
KCES 251950Z 17015G20KT 23/19 A2997 RMK A01 T02280191  RH  085%=      5-min Rain = 0
KCES 251955Z 17012G17KT 23/19 A2997 RMK A01 T02250191  RH  086%=      5-min Rain = 0
KCES 252000Z 17011G16KT 22/19 A2997 RMK A01 T02240192  RH  087%=      5-min Rain = 0
KCES 252005Z 16012KT 22/19 A2996 RMK A01 T02240192  RH  087%=      5-min Rain = 0
KCES 252010Z 17012KT 22/19 A2996 RMK A01 T02240192  RH  087%=      5-min Rain = 0
KCES 252015Z 17011KT 22/19 A2996 RMK A01 T02240192  RH  087%=      5-min Rain = 0
KCES 252020Z 16011KT 22/19 A2995 RMK A01 T02230192  RH  087%=      5-min Rain = 0
KCES 252025Z 16011KT 22/19 A2995 RMK A01 T02230192  RH  087%=      5-min Rain = 0
KCES 252030Z 16010KT 22/19 A2995 RMK A01 T02220192  RH  088%=      5-min Rain = 0
KCES 252035Z 16012KT 22/19 A2995 RMK A01 T02220192  RH  088%=      5-min Rain = 0
KCES 252040Z 15012KT 22/19 A2994 RMK A01 T02210191  RH  088%=      5-min Rain = 0
KCES 252045Z 15013KT 22/19 A2994 RMK A01 T02210191  RH  088%=      5-min Rain = 0
KCES 252050Z 15011KT 22/19 A2994 RMK A01 T02210191  RH  088%=      5-min Rain = 0
KCES 252055Z 16011KT 22/19 A2994 RMK A01 T02200192  RH  089%=      5-min Rain = 0
KCES 252100Z 17009KT 22/19 A2993 RMK A01 T02200192  RH  089%=      5-min Rain = 0
KCES 252105Z 17008KT 22/19 A2993 RMK A01 T02190192  RH  090%=      5-min Rain = 0.01
KCES 252110Z 20007KT 22/19 A2994 RMK A01 T02170192  RH  091%=      5-min Rain = 0.03
KCES 252115Z 27010G18KT 22/19 A2995 RMK A01 T02160192  RH  091%=      5-min Rain = 0.07
KCES 252120Z 28022G32KT 21/19 A2995 RMK A01 T02090185  RH  091%=      5-min Rain = 0.22
KCES 252125Z 27019G30KT 19/17 A2995 RMK A01 T01910171  RH  093%=      5-min Rain = 0.17
KCES 252130Z 23019G30KT 19/18 A2995 RMK A01 T01940176  RH  094%=      5-min Rain = 0.18
KCES 252135Z 22017G22KT 20/18 A2995 RMK A01 T02000184  RH  095%=      5-min Rain = 0.08
KCES 252140Z 21018G26KT 20/19 A2994 RMK A01 T02040188  RH  095%=      5-min Rain = 0.07
KCES 252145Z 17017G24KT 21/19 A2989 RMK A01 T02060190  RH  096%=      5-min Rain = 0.07
KCES 252150Z 18017G22KT 21/19 A299 RMK A01 T02070191  RH  096%=      5-min Rain = 0.02
KCES 252155Z 19016G23KT 21/19 A2991 RMK A01 T02080193  RH  096%=      5-min Rain = 0
KCES 252200Z 19013KT 21/20 A2992 RMK A01 T02120197  RH  097%=      5-min Rain = 0
KCES 252205Z 18014KT 21/20 A2992 RMK A01 T02100195  RH  096%=      5-min Rain = 0
KCES 252210Z 18011KT 21/19 A2993 RMK A01 T02060191  RH  096%=      5-min Rain = 0
KCES 252215Z 19010KT 21/19 A2993 RMK A01 T02060190  RH  096%=      5-min Rain = 0
KCES 252220Z 18009KT 21/19 A2993 RMK A01 T02100192  RH  095%=      5-min Rain = 0
KCES 252225Z 18009KT 21/19 A2993 RMK A01 T02100190  RH  093%=      5-min Rain = 0
KCES 252230Z 18008KT 21/19 A2993 RMK A01 T02110190  RH  093%=      5-min Rain = 0
KCES 252235Z 19008KT 21/19 A2993 RMK A01 T02110191  RH  093%=      5-min Rain = 0
KCES 252240Z 18006KT 21/19 A2993 RMK A01 T02120191  RH  093%=      5-min Rain = 0
KCES 252245Z 20007KT 21/19 A2994 RMK A01 T02120191  RH  093%=      5-min Rain = 0
KCES 252250Z 22005KT 21/19 A2995 RMK A01 T02120191  RH  093%=      5-min Rain = 0
KCES 252255Z 25006KT 21/19 A2996 RMK A01 T02110191  RH  093%=      5-min Rain = 0.01
KCES 252300Z 29006KT 21/19 A2996 RMK A01 T02100191  RH  094%=      5-min Rain = 0
KCES 252305Z 31009KT 21/19 A2996 RMK A01 T02100191  RH  094%=      5-min Rain = 0.01
KCES 252310Z 31009KT 21/19 A2995 RMK A01 T02090191  RH  095%=      5-min Rain = 0
KCES 252315Z 30009KT 21/19 A2996 RMK A01 T02080190  RH  094%=      5-min Rain = 0.01
KCES 252320Z 30009KT 21/19 A2995 RMK A01 T02050186  RH  094%=      5-min Rain = 0
KCES 252325Z 33007KT 20/18 A2995 RMK A01 T01990178  RH  093%=      5-min Rain = 0
KCES 252330Z 33005KT 20/18 A2995 RMK A01 T01960176  RH  093%=      5-min Rain = 0.01
KCES 252335Z 36004KT 20/18 A2994 RMK A01 T01950175  RH  093%=      5-min Rain = 0
KCES 252340Z 00002KT 19/18 A2995 RMK A01 T01940175  RH  093%=      5-min Rain = 0.01
KCES 252345Z 33003KT 19/18 A2995 RMK A01 T01940175  RH  094%=      5-min Rain = 0
KCES 252350Z 32002KT 19/18 A2995 RMK A01 T01940175  RH  094%=      5-min Rain = 0.01
KCES 252355Z 33002KT 19/18 A2996 RMK A01 T01930175  RH  094%=      5-min Rain = 0.01
KCES 260000Z 31007KT 19/17 A2997 RMK A01 T01910172  RH  094%=      5-min Rain = 0.03
KCES 260005Z 31007G15KT 19/17 A2997 RMK A01 T01870170  RH  094%=      5-min Rain = 0.04
KCES 260010Z 30014KT 18/17 A2996 RMK A01 T01830166  RH  094%=      5-min Rain = 0.05
KCES 260015Z 31011G16KT 18/16 A2997 RMK A01 T01790162  RH  094%=      5-min Rain = 0.09
KCES 260020Z 26011G18KT 18/16 A2998 RMK A01 T01800164  RH  095%=      5-min Rain = 0.03
KCES 260025Z 20010KT 19/17 A2998 RMK A01 T01860170  RH  095%=      5-min Rain = 0.03
KCES 260030Z 18016G24KT 19/17 A2997 RMK A01 T01890165  RH  091%=      5-min Rain = 0.01
KCES 260035Z 17022G29KT 20/16 A2997 RMK A01 T01950164  RH  086%=      5-min Rain = 0
KCES 260040Z 17021KT 19/16 A2995 RMK A01 T01940163  RH  086%=      5-min Rain = 0
KCES 260045Z 16021G27KT 19/16 A2992 RMK A01 T01880164  RH  090%=      5-min Rain = 0.01
KCES 260050Z 16022KT 19/16 A2991 RMK A01 T01870164  RH  091%=      5-min Rain = 0
KCES 260055Z 17016G24KT 19/16 A2992 RMK A01 T01870164  RH  091%=      5-min Rain = 0
KCES 260100Z 15015KT 19/17 A299 RMK A01 T01930165  RH  088%=      5-min Rain = 0
KCES 260105Z 15017KT 19/16 A2988 RMK A01 T01940164  RH  087%=      5-min Rain = 0
KCES 260110Z 16019KT 20/16 A299 RMK A01 T01960163  RH  085%=      5-min Rain = 0
KCES 260115Z 17019KT 20/16 A299 RMK A01 T01980162  RH  084%=      5-min Rain = 0
KCES 260120Z 18017G22KT 20/16 A2989 RMK A01 T01990163  RH  083%=      5-min Rain = 0
KCES 260125Z 18019G25KT 20/16 A299 RMK A01 T02000163  RH  083%=      5-min Rain = 0
KCES 260130Z 18020G27KT 20/17 A299 RMK A01 T01970165  RH  085%=      5-min Rain = 0
KCES 260135Z 17021G26KT 19/17 A299 RMK A01 T01930166  RH  089%=      5-min Rain = 0
KCES 260140Z 18019G24KT 19/17 A2991 RMK A01 T01880165  RH  091%=      5-min Rain = 0
KCES 260145Z 19019KT 18/16 A2991 RMK A01 T01830161  RH  091%=      5-min Rain = 0
KCES 260150Z 19016KT 18/16 A2991 RMK A01 T01800159  RH  092%=      5-min Rain = 0
KCES 260155Z 19013G18KT 18/16 A2991 RMK A01 T01780157  RH  091%=      5-min Rain = 0
KCES 260200Z 19012KT 18/16 A2991 RMK A01 T01770156  RH  092%=      5-min Rain = 0
KCES 260205Z 18012KT 18/16 A2992 RMK A01 T01760155  RH  092%=      5-min Rain = 0
KCES 260210Z 19012KT 17/15 A2992 RMK A01 T01740154  RH  092%=      5-min Rain = 0
KCES 260215Z 19010KT 17/15 A2991 RMK A01 T01740153  RH  092%=      5-min Rain = 0
KCES 260220Z 18010KT 17/15 A2991 RMK A01 T01730152  RH  092%=      5-min Rain = 0
KCES 260225Z 19010KT 17/15 A2991 RMK A01 T01730152  RH  091%=      5-min Rain = 0
KCES 260230Z 19010KT 17/15 A2991 RMK A01 T01720151  RH  091%=      5-min Rain = 0
KCES 260235Z 19010KT 17/15 A2991 RMK A01 T01720150  RH  091%=      5-min Rain = 0
KCES 260240Z 19010KT 17/15 A2991 RMK A01 T01720150  RH  091%=      5-min Rain = 0
KCES 260245Z 20009KT 17/15 A299 RMK A01 T01720150  RH  091%=      5-min Rain = 0
KCES 260250Z 20009KT 17/15 A299 RMK A01 T01730149  RH  090%=      5-min Rain = 0
KCES 260255Z 20010KT 18/15 A299 RMK A01 T01760149  RH  088%=      5-min Rain = 0
KCES 260300Z 20010KT 18/15 A2991 RMK A01 T01800148  RH  086%=      5-min Rain = 0
KCES 260305Z 20010KT 18/15 A2991 RMK A01 T01800148  RH  086%=      5-min Rain = 0
KCES 260310Z 20010KT 18/15 A2991 RMK A01 T01800148  RH  085%=      5-min Rain = 0
KCES 260315Z 20010KT 18/15 A2992 RMK A01 T01800148  RH  085%=      5-min Rain = 0
KCES 260320Z 20010KT 18/15 A2992 RMK A01 T01810149  RH  085%=      5-min Rain = 0
KCES 260325Z 19009KT 18/15 A2993 RMK A01 T01800149  RH  086%=      5-min Rain = 0
KCES 260330Z 19009KT 18/15 A2993 RMK A01 T01780149  RH  087%=      5-min Rain = 0
KCES 260335Z 18008KT 18/15 A2994 RMK A01 T01770149  RH  087%=      5-min Rain = 0
KCES 260340Z 18008KT 18/15 A2994 RMK A01 T01760149  RH  088%=      5-min Rain = 0
KCES 260345Z 18008KT 18/15 A2994 RMK A01 T01770150  RH  088%=      5-min Rain = 0
KCES 260350Z 18009KT 18/15 A2994 RMK A01 T01780150  RH  087%=      5-min Rain = 0
KCES 260355Z 17008KT 18/15 A2994 RMK A01 T01770148  RH  087%=      5-min Rain = 0
KCES 260400Z 17009KT 18/15 A2994 RMK A01 T01760149  RH  088%=      5-min Rain = 0
KCES 260405Z 17011KT 18/15 A2994 RMK A01 T01810152  RH  087%=      5-min Rain = 0
KCES 260410Z 16012KT 19/15 A2994 RMK A01 T01860154  RH  085%=      5-min Rain = 0
KCES 260415Z 16012KT 19/16 A2994 RMK A01 T01880155  RH  085%=      5-min Rain = 0
KCES 260420Z 16012KT 19/16 A2995 RMK A01 T01890157  RH  085%=      5-min Rain = 0
KCES 260425Z 16013KT 19/16 A2995 RMK A01 T01930161  RH  086%=      5-min Rain = 0
KCES 260430Z 16012KT 20/16 A2995 RMK A01 T01950163  RH  086%=      5-min Rain = 0
KCES 260435Z 15012KT 20/17 A2995 RMK A01 T01970165  RH  086%=      5-min Rain = 0
KCES 260440Z 15013KT 20/17 A2995 RMK A01 T02000168  RH  086%=      5-min Rain = 0
KCES 260445Z 15011G16KT 20/17 A2995 RMK A01 T02000168  RH  086%=      5-min Rain = 0
KCES 260450Z 15011KT 20/17 A2995 RMK A01 T01980168  RH  087%=      5-min Rain = 0
KCES 260455Z 14012KT 20/17 A2995 RMK A01 T01990170  RH  088%=      5-min Rain = 0

Page generated in 0.0105 seconds.